createdAt,value
2019-03-25T00:02:01.379Z,98441.58
2019-03-25T00:04:30.967Z,98437.86
2019-03-25T00:07:00.459Z,98440.06
2019-03-25T00:13:09.423Z,98441.61
2019-03-25T00:15:38.831Z,98434.32
2019-03-25T00:18:08.414Z,98434.91
2019-03-25T00:20:37.751Z,98440.86
2019-03-25T00:23:07.089Z,98424.04
2019-03-25T00:25:36.559Z,98424.21
2019-03-25T00:28:05.890Z,98434.39
2019-03-25T00:30:35.234Z,98444.33
2019-03-25T00:33:04.570Z,98439.31
2019-03-25T00:35:34.195Z,98437.31
2019-03-25T00:38:03.798Z,98436.38
2019-03-25T00:40:33.141Z,98439.23
2019-03-25T00:43:02.487Z,98429.16
2019-03-25T00:45:31.822Z,98428.81
2019-03-25T00:48:01.514Z,98435.67
2019-03-25T00:50:30.845Z,98424.74
2019-03-25T00:53:00.233Z,98423.63
2019-03-25T00:55:29.523Z,98424.79
2019-03-25T00:57:58.870Z,98430.66
2019-03-25T01:00:28.261Z,98434.19
2019-03-25T01:02:57.649Z,98431.16
2019-03-25T01:05:27.338Z,98438.80
2019-03-25T01:07:56.938Z,98437.70
2019-03-25T01:10:37.327Z,98435.34
2019-03-25T01:13:07.011Z,98427.38
2019-03-25T01:15:36.354Z,98421.27
2019-03-25T01:18:16.356Z,98434.06
2019-03-25T01:20:56.167Z,98423.70
2019-03-25T01:23:25.511Z,98428.69
2019-03-25T01:26:01.062Z,98428.69
2019-03-25T01:28:30.682Z,98435.10
2019-03-25T01:31:00.029Z,98433.79
2019-03-25T01:33:29.677Z,98428.51
2019-03-25T01:35:59.022Z,98441.30
2019-03-25T01:38:28.372Z,98420.08
2019-03-25T01:40:57.986Z,98427.83
2019-03-25T01:43:27.595Z,98429.89
2019-03-25T01:45:57.203Z,98428.10
2019-03-25T01:48:26.559Z,98421.42
2019-03-25T01:50:56.214Z,98432.50
2019-03-25T01:53:25.547Z,98431.59
2019-03-25T01:55:55.222Z,98423.55
2019-03-25T01:58:24.805Z,98431.33
2019-03-25T02:00:54.220Z,98429.16
2019-03-25T02:03:43.194Z,98426.81
2019-03-25T02:06:12.798Z,98428.31
2019-03-25T02:08:42.410Z,98425.18
2019-03-25T02:11:11.764Z,98421.73
2019-03-25T02:13:41.420Z,98416.47
2019-03-25T02:16:10.759Z,98422.56
2019-03-25T02:18:40.430Z,98433.35
2019-03-25T02:24:12.528Z,98421.59
2019-03-25T02:26:47.627Z,98424.16
2019-03-25T02:29:16.979Z,98427.70
2019-03-25T02:31:46.337Z,98427.42
2019-03-25T02:34:17.307Z,98424.70
2019-03-25T02:36:46.696Z,98421.27
2019-03-25T02:39:16.303Z,98416.46
2019-03-25T02:41:45.652Z,98411.93
2019-03-25T02:44:15.316Z,98409.38
2019-03-25T02:46:44.740Z,98408.55
2019-03-25T02:49:14.120Z,98412.42
2019-03-25T02:51:43.475Z,98412.56
2019-03-25T02:54:13.144Z,98413.36
2019-03-25T02:56:42.549Z,98407.02
2019-03-25T02:59:11.893Z,98415.23
2019-03-25T03:01:41.225Z,98410.13
2019-03-25T03:04:10.847Z,98418.29
2019-03-25T03:06:40.179Z,98412.34
2019-03-25T03:12:11.333Z,98426.10
2019-03-25T03:14:40.634Z,98421.22
2019-03-25T03:17:09.986Z,98416.34
2019-03-25T03:19:39.562Z,98415.87
2019-03-25T03:22:09.146Z,98414.84
2019-03-25T03:24:38.486Z,98413.23
2019-03-25T03:27:07.822Z,98412.91
2019-03-25T03:29:37.240Z,98411.16
2019-03-25T03:32:06.717Z,98415.87
2019-03-25T03:34:56.706Z,98417.94
2019-03-25T03:37:26.051Z,98415.13
2019-03-25T03:39:55.371Z,98416.51
2019-03-25T03:45:26.893Z,98410.03
2019-03-25T03:48:09.048Z,98410.34
2019-03-25T03:53:40.278Z,98415.58
2019-03-25T03:59:11.967Z,98406.99
2019-03-25T04:01:41.552Z,98403.08
2019-03-25T04:04:10.901Z,98406.45
2019-03-25T04:06:59.327Z,98419.39
2019-03-25T04:09:48.015Z,98406.22
2019-03-25T04:12:17.360Z,98410.41
2019-03-25T04:14:46.701Z,98407.70
2019-03-25T04:17:16.094Z,98406.15
2019-03-25T04:19:45.440Z,98410.32
2019-03-25T04:22:15.068Z,98403.49
2019-03-25T04:24:44.671Z,98406.12
2019-03-25T04:27:14.039Z,98407.78
2019-03-25T04:29:43.367Z,98401.30
2019-03-25T04:32:24.641Z,98409.09
2019-03-25T04:34:53.981Z,98406.06
2019-03-25T04:37:23.667Z,98409.89
2019-03-25T04:39:53.274Z,98417.60
2019-03-25T04:42:22.883Z,98413.80
2019-03-25T04:44:52.278Z,98427.23
2019-03-25T04:47:21.621Z,98424.02
2019-03-25T04:49:51.215Z,98421.28
2019-03-25T04:52:20.546Z,98419.91
2019-03-25T04:54:49.898Z,98411.99
2019-03-25T04:57:19.494Z,98419.38
2019-03-25T04:59:48.830Z,98416.98
2019-03-25T05:02:18.190Z,98420.55
2019-03-25T05:04:47.818Z,98415.61
2019-03-25T05:07:17.421Z,98415.12
2019-03-25T05:09:46.997Z,98409.59
2019-03-25T05:12:16.635Z,98411.59
2019-03-25T05:14:46.044Z,98409.41
2019-03-25T05:17:15.387Z,98409.98
2019-03-25T05:19:44.749Z,98408.63
2019-03-25T05:22:14.094Z,98405.34
2019-03-25T05:24:43.508Z,98407.04
2019-03-25T05:27:12.898Z,98410.89
2019-03-25T05:29:42.263Z,98408.16
2019-03-25T05:32:11.606Z,98406.28
2019-03-25T05:34:40.957Z,98405.20
2019-03-25T05:37:29.406Z,98413.66
2019-03-25T05:39:58.753Z,98410.34
2019-03-25T05:42:28.428Z,98412.83
2019-03-25T05:44:57.805Z,98413.41
2019-03-25T05:47:27.395Z,98416.11
2019-03-25T05:49:57.032Z,98414.52
2019-03-25T05:52:26.386Z,98408.76
2019-03-25T05:54:56.043Z,98405.16
2019-03-25T05:57:25.386Z,98409.48
2019-03-25T05:59:55.050Z,98407.79
2019-03-25T06:02:24.391Z,98412.44
2019-03-25T06:04:53.743Z,98410.23
2019-03-25T06:07:23.087Z,98411.84
2019-03-25T06:09:52.435Z,98411.51
2019-03-25T06:12:21.845Z,98412.29
2019-03-25T06:14:51.184Z,98419.62
2019-03-25T06:17:20.543Z,98409.80
2019-03-25T06:19:49.890Z,98411.84
2019-03-25T06:22:19.237Z,98409.98
2019-03-25T06:25:00.663Z,98412.13
2019-03-25T06:27:30.257Z,98407.79
2019-03-25T06:29:59.673Z,98406.70
2019-03-25T06:32:29.271Z,98406.65
2019-03-25T06:34:58.618Z,98410.66
2019-03-25T06:37:28.202Z,98406.84
2019-03-25T06:39:57.888Z,98411.48
2019-03-25T06:42:27.235Z,98406.42
2019-03-25T06:44:56.604Z,98404.41
2019-03-25T06:47:26.298Z,98408.13
2019-03-25T06:49:55.905Z,98405.62
2019-03-25T06:52:25.515Z,98405.02
2019-03-25T06:54:54.919Z,98407.01
2019-03-25T06:57:25.880Z,98405.22
2019-03-25T07:00:54.650Z,98407.28
2019-03-25T07:03:23.983Z,98401.41
2019-03-25T07:05:53.667Z,98406.53
2019-03-25T07:08:23.269Z,98407.81
2019-03-25T07:10:52.614Z,98410.22
2019-03-25T07:16:23.953Z,98416.41
2019-03-25T07:18:53.647Z,98415.66
2019-03-25T07:21:22.999Z,98408.30
2019-03-25T07:23:52.335Z,98410.02
2019-03-25T07:26:21.684Z,98396.58
2019-03-25T07:29:03.178Z,98401.64
2019-03-25T07:31:32.639Z,98399.77
2019-03-25T07:34:01.989Z,98388.23
2019-03-25T07:36:31.655Z,98380.08
2019-03-25T07:39:01.000Z,98375.33
2019-03-25T07:41:30.346Z,98367.97
2019-03-25T07:43:59.688Z,98361.59
2019-03-25T07:46:29.369Z,98377.11
2019-03-25T07:48:58.973Z,98373.97
2019-03-25T07:51:28.324Z,98371.04
2019-03-25T07:53:57.653Z,98381.27
2019-03-25T07:56:27.288Z,98379.46
2019-03-25T07:58:56.680Z,98386.08
2019-03-25T08:01:26.001Z,98389.49
2019-03-25T08:03:55.594Z,98378.33
2019-03-25T08:06:24.965Z,98389.30
2019-03-25T08:09:03.425Z,98390.33
2019-03-25T08:11:31.051Z,98387.68
2019-03-25T08:14:00.688Z,98383.91
2019-03-25T08:16:30.105Z,98387.20
2019-03-25T08:18:59.447Z,98383.56
2019-03-25T08:21:40.112Z,98387.45
2019-03-25T08:24:09.446Z,98378.60
2019-03-25T08:26:44.632Z,98376.77
2019-03-25T08:29:13.969Z,98380.17
2019-03-25T08:31:43.333Z,98384.73
2019-03-25T08:34:13.024Z,98364.80
2019-03-25T08:36:42.627Z,98372.05
2019-03-25T08:39:12.221Z,98361.78
2019-03-25T08:41:41.563Z,98364.19
2019-03-25T08:44:11.229Z,98364.25
2019-03-25T08:46:40.838Z,98368.66
2019-03-25T08:49:29.262Z,98365.05
2019-03-25T08:51:58.898Z,98375.53
2019-03-25T08:54:28.501Z,98373.34
2019-03-25T08:56:57.846Z,98371.69
2019-03-25T08:59:27.179Z,98370.23
2019-03-25T09:01:56.511Z,98376.34
2019-03-25T09:04:26.108Z,98374.19
2019-03-25T09:07:16.714Z,98380.17
2019-03-25T09:09:46.057Z,98377.98
2019-03-25T09:12:15.387Z,98380.05
2019-03-25T09:14:44.969Z,98380.11
2019-03-25T09:17:14.299Z,98382.05
2019-03-25T09:19:44.046Z,98379.16
2019-03-25T09:22:13.443Z,98378.38
2019-03-25T09:24:42.793Z,98380.86
2019-03-25T09:27:12.278Z,98387.14
2019-03-25T09:29:41.970Z,98370.57
2019-03-25T09:32:17.292Z,98368.09
2019-03-25T09:34:46.914Z,98358.14
2019-03-25T09:37:16.557Z,98361.58
2019-03-25T09:39:46.219Z,98363.19
2019-03-25T09:42:15.550Z,98365.86
2019-03-25T09:44:44.894Z,98363.51
2019-03-25T09:47:14.226Z,98363.23
2019-03-25T09:49:43.574Z,98358.95
2019-03-25T09:52:13.070Z,98374.02
2019-03-25T09:54:42.398Z,98369.58
2019-03-25T09:57:11.985Z,98385.87
2019-03-25T09:59:41.560Z,98368.97
2019-03-25T10:02:11.252Z,98375.14
2019-03-25T10:04:40.598Z,98375.39
2019-03-25T10:10:12.115Z,98380.59
2019-03-25T10:12:41.684Z,98387.88
2019-03-25T10:15:21.845Z,98383.74
2019-03-25T10:17:51.179Z,98381.92
2019-03-25T10:20:20.516Z,98387.34
2019-03-25T10:22:49.864Z,98394.16
2019-03-25T10:25:19.337Z,98391.65
2019-03-25T10:28:08.029Z,98393.34
2019-03-25T10:30:37.367Z,98388.59
2019-03-25T10:33:06.892Z,98403.20
2019-03-25T10:35:36.242Z,98398.05
2019-03-25T10:38:05.883Z,98391.98
2019-03-25T10:40:35.240Z,98395.08
2019-03-25T10:43:04.580Z,98391.80
2019-03-25T10:45:34.287Z,98396.45
2019-03-25T10:48:03.754Z,98391.75
2019-03-25T10:50:33.103Z,98390.17
2019-03-25T10:53:02.428Z,98381.96
2019-03-25T10:55:32.013Z,98368.05
2019-03-25T10:58:01.586Z,98376.03
2019-03-25T11:00:31.006Z,98376.13
2019-03-25T11:03:00.614Z,98368.04
2019-03-25T11:05:29.955Z,98358.61
2019-03-25T11:07:59.375Z,98369.47
2019-03-25T11:10:29.027Z,98359.72
2019-03-25T11:12:58.390Z,98357.85
2019-03-25T11:15:28.034Z,98344.03
2019-03-25T11:17:57.646Z,98342.23
2019-03-25T11:20:27.001Z,98337.50
2019-03-25T11:22:56.758Z,98338.88
2019-03-25T11:25:26.388Z,98346.05
2019-03-25T11:27:55.793Z,98350.40
2019-03-25T11:31:03.724Z,98361.22
2019-03-25T11:34:13.103Z,98355.80
2019-03-25T11:36:42.431Z,98360.11
2019-03-25T11:39:11.844Z,98358.03
2019-03-25T11:41:41.368Z,98346.78
2019-03-25T11:44:10.711Z,98347.75
2019-03-25T11:46:40.346Z,98358.56
2019-03-25T11:49:09.698Z,98360.27
2019-03-25T11:51:39.039Z,98362.98
2019-03-25T11:54:08.378Z,98366.73
2019-03-25T11:56:38.051Z,98369.20
2019-03-25T11:59:07.663Z,98365.59
2019-03-25T12:01:38.903Z,98359.25
2019-03-25T12:04:10.521Z,98358.89
2019-03-25T12:06:45.079Z,98352.16
2019-03-25T12:09:16.321Z,98349.48
2019-03-25T12:11:47.304Z,98340.34
2019-03-25T12:14:16.973Z,98334.84
2019-03-25T12:16:48.219Z,98334.92
2019-03-25T12:19:17.554Z,98339.65
2019-03-25T12:21:47.232Z,98351.22
2019-03-25T12:24:18.216Z,98345.77
2019-03-25T12:26:49.529Z,98346.30
2019-03-25T12:29:29.248Z,98347.36
2019-03-25T12:32:21.021Z,98352.59
2019-03-25T12:34:50.475Z,98348.41
2019-03-25T12:37:19.803Z,98357.47
2019-03-25T12:39:50.792Z,98346.25
2019-03-25T12:42:20.449Z,98341.55
2019-03-25T12:44:49.803Z,98335.18
2019-03-25T12:47:19.126Z,98338.78
2019-03-25T12:49:50.394Z,98339.72
2019-03-25T12:52:20.038Z,98361.33
2019-03-25T12:54:49.378Z,98366.16
2019-03-25T12:57:31.441Z,98396.78
2019-03-25T13:00:01.104Z,98408.12
2019-03-25T13:02:32.355Z,98409.66
2019-03-25T13:05:01.702Z,98406.87
2019-03-25T13:07:31.045Z,98393.13
2019-03-25T13:10:00.681Z,98385.58
2019-03-25T13:12:30.017Z,98363.41
2019-03-25T13:14:59.372Z,98354.92
2019-03-25T13:17:28.726Z,98360.63
2019-03-25T13:19:58.075Z,98355.37
2019-03-25T13:22:27.489Z,98351.62
2019-03-25T13:24:56.899Z,98349.64
2019-03-25T13:27:26.242Z,98346.40
2019-03-25T13:29:55.601Z,98337.32
2019-03-25T13:32:24.928Z,98328.30
2019-03-25T13:34:54.276Z,98324.29
2019-03-25T13:37:23.617Z,98328.34
2019-03-25T13:39:52.956Z,98333.59
2019-03-25T13:42:22.593Z,98326.93
2019-03-25T13:45:11.140Z,98316.67
2019-03-25T13:47:40.489Z,98310.27
2019-03-25T13:53:33.008Z,98308.77
2019-03-25T13:59:04.228Z,98308.96
2019-03-25T14:01:39.872Z,98308.48
2019-03-25T14:04:09.234Z,98310.30
2019-03-25T14:06:38.540Z,98317.33
2019-03-25T14:12:09.589Z,98323.70
2019-03-25T14:14:38.930Z,98376.41
2019-03-25T14:17:08.599Z,98392.91
2019-03-25T14:19:37.952Z,98403.29
2019-03-25T14:22:07.608Z,98448.72
2019-03-25T14:24:37.217Z,98441.13
2019-03-25T14:27:06.822Z,98451.81
2019-03-25T14:29:36.180Z,98448.78
2019-03-25T14:32:05.513Z,98443.30
2019-03-25T14:34:44.455Z,98451.97
2019-03-25T14:37:11.400Z,98445.11
2019-03-25T14:39:40.753Z,98443.42
2019-03-25T14:42:10.106Z,98429.92
2019-03-25T14:44:41.077Z,98429.34
2019-03-25T14:47:10.433Z,98428.37
2019-03-25T14:49:39.773Z,98426.48
2019-03-25T14:52:09.113Z,98419.99
2019-03-25T14:54:40.160Z,98426.00
2019-03-25T14:57:41.027Z,98427.03
2019-03-25T15:03:24.923Z,98413.62
2019-03-25T15:05:54.610Z,98422.56
2019-03-25T15:08:24.207Z,98411.02
2019-03-25T15:10:53.998Z,98402.63
2019-03-25T15:13:43.913Z,98402.48
2019-03-25T15:16:13.305Z,98401.78
2019-03-25T15:18:42.910Z,98395.77
2019-03-25T15:21:12.520Z,98403.20
2019-03-25T15:23:41.847Z,98406.80
2019-03-25T15:26:11.527Z,98411.74
2019-03-25T15:28:41.135Z,98411.48
2019-03-25T15:31:10.742Z,98406.71
2019-03-25T15:33:40.080Z,98411.05
2019-03-25T15:36:09.492Z,98415.06
2019-03-25T15:38:38.812Z,98413.25
2019-03-25T15:41:13.792Z,98412.15
2019-03-25T15:43:43.113Z,98414.42
2019-03-25T15:46:12.451Z,98416.83
2019-03-25T15:48:41.779Z,98422.47
2019-03-25T15:51:11.105Z,98418.34
2019-03-25T15:53:40.449Z,98414.05
2019-03-25T15:56:10.103Z,98412.31
2019-03-25T15:58:39.708Z,98412.20
2019-03-25T16:01:09.420Z,98413.48
2019-03-25T16:03:38.746Z,98416.10
2019-03-25T16:06:08.126Z,98411.71
2019-03-25T16:08:37.724Z,98411.77
2019-03-25T16:11:07.439Z,98402.83
2019-03-25T16:13:36.778Z,98397.20
2019-03-25T16:16:06.106Z,98402.27
2019-03-25T16:18:54.793Z,98402.94
2019-03-25T16:21:24.415Z,98404.59
2019-03-25T16:23:54.011Z,98412.56
2019-03-25T16:26:23.350Z,98406.84
2019-03-25T16:28:52.675Z,98421.01
2019-03-25T16:31:22.316Z,98395.42
2019-03-25T16:33:51.644Z,98447.77
2019-03-25T16:36:21.027Z,98481.98
2019-03-25T16:38:50.368Z,98482.64
2019-03-25T16:41:19.730Z,98497.87
2019-03-25T16:43:49.067Z,98495.22
2019-03-25T16:49:32.895Z,98500.23
2019-03-25T16:52:16.673Z,98506.73
2019-03-25T16:54:46.035Z,98518.60
2019-03-25T16:57:15.636Z,98506.32
2019-03-25T16:59:44.966Z,98513.70
2019-03-25T17:02:16.287Z,98498.59
2019-03-25T17:04:45.892Z,98512.08
2019-03-25T17:07:15.500Z,98520.67
2019-03-25T17:09:44.851Z,98530.57
2019-03-25T17:12:14.178Z,98527.58
2019-03-25T17:14:43.525Z,98525.09
2019-03-25T17:17:12.856Z,98528.66
2019-03-25T17:19:42.260Z,98528.09
2019-03-25T17:22:11.933Z,98530.34
2019-03-25T17:24:41.279Z,98531.72
2019-03-25T17:27:29.956Z,98534.17
2019-03-25T17:29:59.388Z,98539.67
2019-03-25T17:32:28.980Z,98538.02
2019-03-25T17:35:00.369Z,98540.44
2019-03-25T17:37:29.644Z,98540.47
2019-03-25T17:40:00.613Z,98530.37
2019-03-25T17:42:31.721Z,98534.22
2019-03-25T17:45:01.057Z,98544.87
2019-03-25T17:47:30.724Z,98539.97
2019-03-25T17:50:00.171Z,98533.95
2019-03-25T17:52:36.774Z,98531.52
2019-03-25T17:55:46.260Z,98532.86
2019-03-25T17:58:15.864Z,98543.80
2019-03-25T18:04:00.838Z,98542.73
2019-03-25T18:06:30.210Z,98545.48
2019-03-25T18:08:59.848Z,98545.20
2019-03-25T18:11:30.862Z,98544.66
2019-03-25T18:14:00.495Z,98549.23
2019-03-25T18:16:29.834Z,98548.70
2019-03-25T18:19:18.567Z,98550.30
2019-03-25T18:21:48.174Z,98546.22
2019-03-25T18:24:17.530Z,98549.50
2019-03-25T18:26:46.888Z,98549.50
2019-03-25T18:29:17.189Z,98550.84
2019-03-25T18:31:57.276Z,98556.60
2019-03-25T18:34:26.689Z,98563.41
2019-03-25T18:36:56.037Z,98568.34
2019-03-25T18:39:25.381Z,98568.31
2019-03-25T18:41:56.137Z,98568.09
2019-03-25T18:44:31.833Z,98580.92
2019-03-25T18:47:01.205Z,98583.63
2019-03-25T18:49:30.543Z,98593.76
2019-03-25T18:51:59.877Z,98588.56
2019-03-25T18:54:29.544Z,98592.70
2019-03-25T18:56:59.494Z,98600.08
2019-03-25T18:59:29.190Z,98602.59
2019-03-25T19:01:58.782Z,98595.12
2019-03-25T19:04:28.123Z,98602.22
2019-03-25T19:07:08.961Z,98608.58
2019-03-25T19:09:38.302Z,98609.13
2019-03-25T19:12:20.548Z,98607.22
2019-03-25T19:14:50.098Z,98607.45
2019-03-25T19:17:19.692Z,98607.75
2019-03-25T19:19:48.997Z,98612.64
2019-03-25T19:22:18.383Z,98614.77
2019-03-25T19:24:47.779Z,98611.21
2019-03-25T19:27:29.609Z,98607.64
2019-03-25T19:29:58.933Z,98616.94
2019-03-25T19:32:28.270Z,98618.85
2019-03-25T19:35:09.411Z,98619.14
2019-03-25T19:37:38.793Z,98622.09
2019-03-25T19:43:10.436Z,98623.50
2019-03-25T19:45:40.100Z,98628.98
2019-03-25T19:48:15.608Z,98630.89
2019-03-25T19:50:44.965Z,98632.31
2019-03-25T19:53:19.157Z,98626.02
2019-03-25T19:55:51.114Z,98631.52
2019-03-25T19:58:20.493Z,98638.13
2019-03-25T20:00:49.877Z,98647.71
2019-03-25T20:03:19.567Z,98650.19
2019-03-25T20:05:49.013Z,98652.63
2019-03-25T20:08:18.383Z,98655.40
2019-03-25T20:10:48.001Z,98663.61
2019-03-25T20:13:17.704Z,98674.29
2019-03-25T20:15:47.309Z,98680.84
2019-03-25T20:18:16.657Z,98687.71
2019-03-25T20:20:46.141Z,98685.79
2019-03-25T20:23:15.501Z,98690.16
2019-03-25T20:26:10.075Z,98690.95
2019-03-25T20:28:39.739Z,98697.80
2019-03-25T20:31:09.366Z,98692.59
2019-03-25T20:33:39.033Z,98704.60
2019-03-25T20:36:08.388Z,98709.83
2019-03-25T20:38:49.360Z,98718.56
2019-03-25T20:41:20.931Z,98704.60
2019-03-25T20:43:57.645Z,98715.53
2019-03-25T20:46:27.484Z,98723.18
2019-03-25T20:49:03.523Z,98725.93
2019-03-25T20:51:33.545Z,98720.72
2019-03-25T20:54:03.579Z,98723.44
2019-03-25T20:56:33.378Z,98726.17
2019-03-25T21:02:04.235Z,98721.81
2019-03-25T21:04:33.848Z,98723.70
2019-03-25T21:07:03.442Z,98732.42
2019-03-25T21:09:38.932Z,98736.84
2019-03-25T21:12:14.765Z,98734.06
2019-03-25T21:14:44.439Z,98739.02
2019-03-25T21:17:14.536Z,98740.88
2019-03-25T21:19:44.216Z,98738.14
2019-03-25T21:22:14.037Z,98753.98
2019-03-25T21:24:44.153Z,98755.62
2019-03-25T21:27:13.753Z,98750.98
2019-03-25T21:29:43.233Z,98746.62
2019-03-25T21:32:12.751Z,98744.93
2019-03-25T21:34:42.458Z,98763.20
2019-03-25T21:37:12.479Z,98763.99
2019-03-25T21:39:42.522Z,98776.41
2019-03-25T21:42:12.046Z,98774.61
2019-03-25T21:44:41.685Z,98776.57
2019-03-25T21:47:11.225Z,98785.84
2019-03-25T21:49:41.233Z,98785.03
2019-03-25T21:52:11.070Z,98785.62
2019-03-25T21:54:40.908Z,98781.00
2019-03-25T21:57:10.959Z,98785.08
2019-03-25T21:59:41.143Z,98787.44
2019-03-25T22:02:11.012Z,98793.50
2019-03-25T22:04:40.730Z,98790.48
2019-03-25T22:07:10.445Z,98796.84
2019-03-25T22:09:39.837Z,98797.37
2019-03-25T22:12:09.331Z,98786.97
2019-03-25T22:14:39.693Z,98798.94
2019-03-25T22:23:12.235Z,98804.20
2019-03-25T22:25:41.812Z,98810.71
2019-03-25T22:28:11.701Z,98806.94
2019-03-25T22:30:41.145Z,98805.19
2019-03-25T22:33:10.783Z,98806.59
2019-03-25T22:35:40.333Z,98807.98
2019-03-25T22:38:09.727Z,98818.08
2019-03-25T22:40:39.322Z,98819.72
2019-03-25T22:43:08.859Z,98822.94
2019-03-25T22:45:44.341Z,98814.77
2019-03-25T22:48:13.946Z,98820.81
2019-03-25T22:50:49.574Z,98821.64
2019-03-25T22:53:19.077Z,98827.34
2019-03-25T22:56:08.259Z,98832.22
2019-03-25T22:58:56.872Z,98834.73
2019-03-25T23:05:00.616Z,98846.48
2019-03-25T23:07:30.402Z,98850.08
2019-03-25T23:09:59.808Z,98856.80
2019-03-25T23:12:29.430Z,98850.83
2019-03-25T23:14:59.020Z,98845.69
2019-03-25T23:17:34.268Z,98851.13
2019-03-25T23:23:18.750Z,98849.55
2019-03-25T23:25:48.593Z,98857.19
2019-03-25T23:28:18.621Z,98854.17
2019-03-25T23:30:48.312Z,98863.39
2019-03-25T23:33:17.701Z,98863.14
2019-03-25T23:35:47.080Z,98867.80
2019-03-25T23:38:16.978Z,98863.27
2019-03-25T23:40:46.640Z,98868.39
2019-03-25T23:43:16.236Z,98872.41
2019-03-25T23:45:46.239Z,98877.39
2019-03-25T23:48:16.064Z,98880.14
2019-03-25T23:51:04.804Z,98875.02
2019-03-25T23:53:34.814Z,98876.89
2019-03-25T23:56:04.346Z,98872.59
2019-03-25T23:58:33.914Z,98879.19
